Time;durP1;ratioP1;P1;durP2;ratioP2;P2;SDS_P1;SDS_P2;PMS_P1;PMS_P2;Temp;Humidity;BMP_temperature;BMP_pressure;BME280_temperature;BME280_humidity;BME280_pressure;Samples;Min_cycle;Max_cycle;Signal;HPM_P1;HPM_P2
2022/05/11 00:00:18;;;;;;;6.07;3.60;;;;;;;;;;5082093;28;20080;-78
2022/05/11 00:02:47;;;;;;;5.63;4.13;;;;;;;;;;5086324;28;20041;-80
2022/05/11 00:05:14;;;;;;;6.20;4.25;;;;;;;;;;5082211;28;20067;-78
2022/05/11 00:07:41;;;;;;;6.90;5.10;;;;;;;;;;5082182;28;20033;-79
2022/05/11 00:10:12;;;;;;;5.88;4.20;;;;;;;;;;5087487;28;20038;-78
2022/05/11 00:12:39;;;;;;;5.47;3.78;;;;;;;;;;5101136;28;20060;-78
2022/05/11 00:15:06;;;;;;;5.10;3.72;;;;;;;;;;5099337;28;20072;-79
2022/05/11 00:17:33;;;;;;;6.05;3.85;;;;;;;;;;5099277;28;20063;-79
2022/05/11 00:20:01;;;;;;;6.07;4.22;;;;;;;;;;5082818;28;20029;-78
2022/05/11 00:22:27;;;;;;;5.70;4.05;;;;;;;;;;5080305;28;20025;-79
2022/05/11 00:24:54;;;;;;;5.03;3.60;;;;;;;;;;5081964;28;20040;-78
2022/05/11 00:27:20;;;;;;;6.10;3.60;;;;;;;;;;5081921;28;20036;-78
2022/05/11 00:29:47;;;;;;;7.90;4.60;;;;;;;;;;5081698;28;20044;-79
2022/05/11 00:32:13;;;;;;;9.27;4.05;;;;;;;;;;5081502;28;20041;-79
2022/05/11 00:34:40;;;;;;;6.25;4.20;;;;;;;;;;5081663;28;20037;-79
2022/05/11 00:37:08;;;;;;;5.72;3.80;;;;;;;;;;5081725;28;20029;-78
2022/05/11 00:39:35;;;;;;;6.88;3.78;;;;;;;;;;5081655;28;20033;-79
2022/05/11 00:42:02;;;;;;;5.93;4.10;;;;;;;;;;5083161;28;20024;-80
2022/05/11 00:44:28;;;;;;;5.32;3.83;;;;;;;;;;5081397;28;20029;-78
2022/05/11 00:46:58;;;;;;;5.85;3.85;;;;;;;;;;5094034;28;20036;-79
2022/05/11 00:49:34;;;;;;;6.43;4.00;;;;;;;;;;5099592;28;20513;-79
2022/05/11 00:52:04;;;;;;;6.65;3.78;;;;;;;;;;5099699;28;20040;-79
2022/05/11 00:54:36;;;;;;;7.53;4.10;;;;;;;;;;5098184;28;20072;-79
2022/05/11 00:57:06;;;;;;;5.57;3.70;;;;;;;;;;5099810;28;20055;-78
2022/05/11 00:59:36;;;;;;;5.20;3.78;;;;;;;;;;5100743;28;20029;-79
2022/05/11 01:02:06;;;;;;;5.78;3.92;;;;;;;;;;5100840;28;20040;-78
2022/05/11 01:04:36;;;;;;;5.72;4.03;;;;;;;;;;5100458;28;20028;-79
2022/05/11 01:07:02;;;;;;;6.25;4.10;;;;;;;;;;5100976;28;20033;-79
2022/05/11 01:09:29;;;;;;;5.55;3.92;;;;;;;;;;5100819;28;20048;-79
2022/05/11 01:11:59;;;;;;;5.20;3.55;;;;;;;;;;5086114;28;20029;-79
2022/05/11 01:14:29;;;;;;;5.22;3.55;;;;;;;;;;5078748;28;20029;-79
2022/05/11 01:16:55;;;;;;;5.95;3.50;;;;;;;;;;5088901;28;20036;-79
2022/05/11 01:19:25;;;;;;;5.60;4.13;;;;;;;;;;5100793;28;20044;-79
2022/05/11 01:21:55;;;;;;;6.45;4.00;;;;;;;;;;5100724;28;20033;-79
2022/05/11 01:24:29;;;;;;;5.25;3.75;;;;;;;;;;5100761;28;20048;-79
2022/05/11 01:26:56;;;;;;;6.43;3.75;;;;;;;;;;5099291;28;20563;-79
2022/05/11 01:29:22;;;;;;;6.75;4.32;;;;;;;;;;5100498;28;20043;-78
2022/05/11 01:35:32;;;;;;;10.88;5.53;;;;;;;;;;5096632;28;20094;-79
2022/05/11 01:38:11;;;;;;;6.20;3.85;;;;;;;;;;5080260;28;20059;-79
2022/05/11 01:40:39;;;;;;;4.75;3.45;;;;;;;;;;5080227;28;20040;-79
2022/05/11 01:43:06;;;;;;;5.75;3.80;;;;;;;;;;5080284;28;20029;-79
2022/05/11 01:45:33;;;;;;;5.25;3.58;;;;;;;;;;5080205;28;20060;-79
2022/05/11 01:47:59;;;;;;;5.28;3.50;;;;;;;;;;5077586;28;20025;-79
2022/05/11 01:53:18;;;;;;;5.93;3.67;;;;;;;;;;5180212;27;20349;-80
2022/05/11 01:55:45;;;;;;;6.78;4.05;;;;;;;;;;5179778;27;20040;-80
2022/05/11 01:58:12;;;;;;;6.10;3.92;;;;;;;;;;5179795;27;20019;-80
2022/05/11 02:00:40;;;;;;;7.00;4.15;;;;;;;;;;5158115;27;20031;-81
2022/05/11 02:03:07;;;;;;;5.68;3.95;;;;;;;;;;5158956;28;20023;-81
2022/05/11 02:08:28;;;;;;;5.15;3.65;;;;;;;;;;5118273;27;20365;-80
2022/05/11 02:10:55;;;;;;;6.22;3.85;;;;;;;;;;5118039;28;20027;-80
2022/05/11 02:13:22;;;;;;;6.30;3.97;;;;;;;;;;5118044;28;20020;-80
2022/05/11 02:15:50;;;;;;;5.55;3.65;;;;;;;;;;5097583;28;20043;-81
2022/05/11 02:18:17;;;;;;;5.32;4.00;;;;;;;;;;5117814;28;20083;-81
2022/05/11 02:37:05;;;;;;;7.03;3.58;;;;;;;;;;5097626;28;20092;-79
